Time;durP1;ratioP1;P1;durP2;ratioP2;P2;SDS_P1;SDS_P2;PMS_P1;PMS_P2;Temp;Humidity;BMP_temperature;BMP_pressure;BME280_temperature;BME280_humidity;BME280_pressure;Samples;Min_cycle;Max_cycle;Signal;HPM_P1;HPM_P2
2022/05/19 00:01:13;;;;;;;26.63;19.08;;;;;;;19.91;69.71;101652.31;6222142;23;20062;-83
2022/05/19 00:03:39;;;;;;;23.90;19.30;;;;;;;19.92;69.59;101647.81;6219986;23;20338;-83
2022/05/19 00:06:07;;;;;;;25.05;20.33;;;;;;;19.89;69.94;101656.22;6219764;23;20007;-81
2022/05/19 00:08:33;;;;;;;30.35;20.08;;;;;;;19.85;70.06;101638.63;6221783;23;20011;-81
2022/05/19 00:11:02;;;;;;;24.85;19.13;;;;;;;19.86;69.77;101635.78;6219287;23;20004;-81
2022/05/19 00:13:29;;;;;;;23.48;19.38;;;;;;;19.83;69.78;101630.72;6193835;23;20009;-81
2022/05/19 00:15:56;;;;;;;28.15;20.02;;;;;;;19.82;70.37;101625.47;6223001;23;20000;-83
2022/05/19 00:18:21;;;;;;;23.60;19.42;;;;;;;19.80;69.89;101622.97;6220352;23;20009;-82
2022/05/19 00:20:46;;;;;;;25.40;20.37;;;;;;;19.80;70.20;101622.97;6219960;23;20028;-83
2022/05/19 00:23:13;;;;;;;25.30;19.75;;;;;;;19.77;70.19;101623.28;6217661;23;20240;-81
2022/05/19 00:25:38;;;;;;;23.85;20.08;;;;;;;19.74;70.53;101628.94;6218340;23;20001;-82
2022/05/19 00:28:05;;;;;;;28.95;19.73;;;;;;;19.76;70.28;101621.59;6216589;23;20448;-83
2022/05/19 00:30:31;;;;;;;28.90;19.77;;;;;;;19.74;70.46;101615.47;6216857;23;20032;-83
2022/05/19 00:32:56;;;;;;;24.80;20.00;;;;;;;19.69;70.51;101617.81;6218496;23;20008;-83
2022/05/19 00:35:22;;;;;;;31.00;20.75;;;;;;;19.71;70.46;101607.69;6218505;23;20001;-83
2022/05/19 00:37:47;;;;;;;32.28;21.27;;;;;;;19.67;71.10;101609.00;6219101;23;20008;-83
2022/05/19 00:40:12;;;;;;;25.63;20.07;;;;;;;19.66;70.83;101605.47;6218467;23;20008;-83
2022/05/19 00:42:43;;;;;;;28.83;21.42;;;;;;;19.62;71.22;101604.13;6217450;23;20247;-83
2022/05/19 00:45:11;;;;;;;28.83;21.08;;;;;;;19.59;71.16;101605.28;6217543;23;20001;-82
2022/05/19 00:47:51;;;;;;;28.83;21.17;;;;;;;19.61;70.32;101607.81;6216222;23;20051;-81
2022/05/19 00:50:30;;;;;;;26.73;21.00;;;;;;;19.55;71.26;101600.34;6217031;23;20001;-81
2022/05/19 00:53:10;;;;;;;26.52;21.80;;;;;;;19.57;71.05;101593.81;6218295;23;20307;-81
2022/05/19 00:55:38;;;;;;;;;;;;;;;19.65;69.03;101594.84;6218751;23;20373;-81
2022/05/19 00:58:17;;;;;;;24.77;21.00;;;;;;;19.48;71.98;101594.75;6217836;23;19915;-81
2022/05/19 01:00:45;;;;;;;26.90;22.15;;;;;;;19.49;71.68;101579.44;6217529;23;20004;-81
2022/05/19 01:03:14;;;;;;;28.75;21.63;;;;;;;19.44;71.90;101584.47;6221231;23;20009;-81
2022/05/19 01:05:47;;;;;;;26.00;21.13;;;;;;;19.41;71.60;101581.06;6220505;23;20009;-81
2022/05/19 01:08:19;;;;;;;28.90;21.17;;;;;;;19.42;71.87;101580.06;6219127;23;20015;-82
2022/05/19 01:10:45;;;;;;;25.90;21.45;;;;;;;19.35;72.23;101578.16;6220963;23;20000;-81
2022/05/19 01:13:12;;;;;;;28.85;22.25;;;;;;;19.32;72.61;101573.09;6194272;23;20008;-81
2022/05/19 01:15:42;;;;;;;26.80;22.38;;;;;;;19.30;73.06;101570.56;6220871;23;20024;-81
2022/05/19 01:18:09;;;;;;;31.00;22.63;;;;;;;19.25;72.90;101567.47;6222488;23;20314;-82
2022/05/19 01:20:35;;;;;;;24.67;20.95;;;;;;;19.25;72.86;101564.78;6219543;23;20001;-82
2022/05/19 01:23:09;;;;;;;26.75;21.45;;;;;;;19.24;72.97;101571.19;6219009;23;20338;-81
2022/05/19 01:26:02;;;;;;;33.03;22.13;;;;;;;19.26;71.85;101562.94;6218819;23;20311;-81
2022/05/19 01:28:28;;;;;;;28.02;22.45;;;;;;;19.20;73.56;101548.25;6219293;23;20023;-82
2022/05/19 01:30:56;;;;;;;30.08;22.00;;;;;;;19.19;73.13;101550.09;6218051;23;20028;-82
2022/05/19 01:33:22;;;;;;;32.13;23.25;;;;;;;19.18;73.16;101547.56;6217988;23;20058;-82
2022/05/19 01:35:47;;;;;;;30.52;22.33;;;;;;;19.19;72.66;101533.09;6192040;23;20373;-82
2022/05/19 01:38:26;;;;;;;30.02;22.40;;;;;;;19.17;72.85;101522.50;6219692;23;20438;-82
2022/05/19 01:41:20;;;;;;;33.17;23.17;;;;;;;19.16;72.70;101528.88;6219514;23;20015;-82
2022/05/19 01:44:03;;;;;;;30.75;22.75;;;;;;;19.11;73.06;101533.88;6220719;23;20013;-82
2022/05/19 01:46:35;;;;;;;30.98;22.60;;;;;;;19.06;74.08;101533.50;6221442;23;20075;-82
2022/05/19 01:49:07;;;;;;;30.08;22.05;;;;;;;19.08;73.91;101533.34;6221091;23;20005;-82
2022/05/19 01:51:59;;;;;;;31.20;23.58;;;;;;;19.05;73.37;101526.41;6219851;23;20031;-82
2022/05/19 01:54:27;;;;;;;28.67;23.42;;;;;;;19.02;74.89;101530.28;6220529;23;20011;-82
2022/05/19 01:57:10;;;;;;;25.50;22.20;;;;;;;19.06;73.54;101529.97;6222398;23;20004;-82
2022/05/19 01:59:52;;;;;;;30.48;23.15;;;;;;;19.00;74.17;101518.84;6196284;23;20004;-82
2022/05/19 02:02:26;;;;;;;26.42;23.05;;;;;;;18.98;75.27;101526.19;6221829;23;20378;-82
2022/05/19 02:05:02;;;;;;;31.25;23.15;;;;;;;18.98;74.82;101512.75;6220799;23;20011;-82
2022/05/19 02:07:30;;;;;;;29.02;22.98;;;;;;;18.98;74.94;101514.59;6224607;23;20311;-82
2022/05/19 02:10:01;;;;;;;31.43;23.10;;;;;;;18.95;74.84;101513.09;6223580;23;20087;-82
2022/05/19 02:12:33;;;;;;;28.88;22.70;;;;;;;18.93;75.55;101514.22;6222807;23;20008;-82
2022/05/19 02:15:03;;;;;;;27.48;22.85;;;;;;;18.93;75.24;101514.22;6225164;23;20004;-82
2022/05/19 02:17:31;;;;;;;26.80;22.73;;;;;;;18.93;75.43;101520.44;6227155;23;20008;-82
2022/05/19 02:20:05;;;;;;;29.02;23.05;;;;;;;18.92;75.62;101521.47;6226483;23;20341;-82
2022/05/19 02:22:35;;;;;;;24.38;21.73;;;;;;;18.94;75.26;101519.44;6224764;23;20005;-82
2022/05/19 02:25:14;;;;;;;32.67;22.17;;;;;;;18.96;75.36;101522.81;6224059;23;20005;-82
2022/05/19 02:27:52;;;;;;;;;;;;;;;19.04;72.57;101522.06;6223666;23;20013;-82
2022/05/19 02:30:24;;;;;;;26.30;20.45;;;;;;;18.98;74.60;101528.91;6199869;23;19912;-82
2022/05/19 02:32:50;;;;;;;28.92;21.63;;;;;;;18.98;75.36;101522.69;6226345;23;20009;-82
2022/05/19 02:35:16;;;;;;;24.67;20.10;;;;;;;18.98;75.12;101523.50;6225222;23;20008;-82
2022/05/19 02:37:42;;;;;;;26.38;20.38;;;;;;;18.99;74.82;101527.06;6225151;23;20039;-82
2022/05/19 02:40:09;;;;;;;27.48;20.52;;;;;;;18.98;74.65;101526.19;6223326;23;20009;-82
2022/05/19 02:42:34;;;;;;;24.20;19.38;;;;;;;19.01;74.88;101531.28;6223485;23;20001;-82
2022/05/19 02:44:59;;;;;;;23.55;19.60;;;;;;;19.04;74.40;101528.28;6229122;23;20000;-82
2022/05/19 02:47:25;;;;;;;24.23;19.33;;;;;;;19.06;74.33;101538.06;6227356;23;20421;-82
2022/05/19 02:49:50;;;;;;;24.07;18.67;;;;;;;19.08;74.86;101536.03;6223585;23;20247;-82
2022/05/19 02:52:15;;;;;;;22.13;17.67;;;;;;;19.08;74.10;101536.03;6222455;23;20305;-82
2022/05/19 02:54:40;;;;;;;19.47;17.37;;;;;;;19.11;73.77;101541.13;6224875;23;20009;-82
2022/05/19 02:57:06;;;;;;;18.77;14.67;;;;;;;19.12;73.33;101538.28;6227845;23;20232;-82
2022/05/19 02:59:31;;;;;;;19.17;15.30;;;;;;;19.15;73.35;101562.19;6227176;23;20326;-82
2022/05/19 03:01:57;;;;;;;17.55;14.57;;;;;;;19.17;73.64;101624.81;6194905;23;20009;-82
2022/05/19 03:04:22;;;;;;;28.35;17.33;;;;;;;19.16;74.50;101665.38;6195719;23;20064;-81
2022/05/19 03:06:48;;;;;;;29.35;21.63;;;;;;;19.11;75.33;101676.59;6220555;23;20012;-81
2022/05/19 03:09:13;;;;;;;23.02;19.02;;;;;;;19.13;74.10;101660.28;6195520;23;20315;-82
2022/05/19 03:11:38;;;;;;;25.63;18.98;;;;;;;19.14;73.96;101678.16;6219968;23;20390;-81
2022/05/19 03:14:03;;;;;;;24.15;18.92;;;;;;;19.16;74.16;101692.28;6221009;23;20024;-82
2022/05/19 03:16:29;;;;;;;25.77;17.70;;;;;;;19.19;73.00;101690.13;6220643;23;20000;-81
2022/05/19 03:18:54;;;;;;;20.80;16.27;;;;;;;19.23;72.61;101688.84;6219134;23;20011;-81
2022/05/19 03:21:20;;;;;;;22.52;15.90;;;;;;;19.26;72.31;101694.91;6219730;23;20004;-81
2022/05/19 03:23:45;;;;;;;18.95;16.30;;;;;;;19.28;72.33;101695.59;6218390;23;20007;-81
2022/05/19 03:26:10;;;;;;;22.73;15.77;;;;;;;19.30;72.06;101696.28;6217563;23;20063;-81
2022/05/19 03:28:36;;;;;;;20.10;15.43;;;;;;;19.32;72.37;101687.06;6217688;23;20259;-81
2022/05/19 03:31:01;;;;;;;22.23;16.70;;;;;;;19.33;71.42;101688.75;6217427;23;20039;-81
2022/05/19 03:33:26;;;;;;;21.65;15.43;;;;;;;19.35;71.96;101699.38;6217381;23;19997;-81
2022/05/19 03:35:57;;;;;;;23.15;16.92;;;;;;;19.36;71.60;101687.59;6190910;23;20016;-81
2022/05/19 03:38:22;;;;;;;20.02;17.08;;;;;;;19.34;73.15;101703.09;6216822;23;20418;-81
2022/05/19 03:40:47;;;;;;;20.90;14.95;;;;;;;19.37;72.30;101695.53;6217756;23;20051;-81
2022/05/19 03:43:13;;;;;;;20.57;15.87;;;;;;;19.36;71.96;101709.16;6191163;23;20004;-81
2022/05/19 03:45:39;;;;;;;21.97;15.80;;;;;;;19.35;72.37;101702.94;6219362;23;20236;-81
2022/05/19 03:48:05;;;;;;;26.60;16.65;;;;;;;19.36;72.63;101685.75;6232585;23;20251;-82
2022/05/19 03:50:30;;;;;;;21.05;16.75;;;;;;;19.37;72.43;101684.75;6236534;23;20316;-81
2022/05/19 03:52:55;;;;;;;22.98;17.63;;;;;;;19.36;72.82;101687.59;6197877;23;20087;-81
2022/05/19 03:55:20;;;;;;;18.95;15.60;;;;;;;19.36;72.13;101684.91;6217178;23;20005;-81
2022/05/19 03:57:46;;;;;;;20.20;16.08;;;;;;;19.35;72.35;101712.84;6217132;23;20437;-81
2022/05/19 04:00:12;;;;;;;18.77;15.43;;;;;;;19.35;72.37;101713.69;6217648;23;20051;-81
2022/05/19 04:02:38;;;;;;;19.92;15.82;;;;;;;19.33;72.66;101714.84;6217442;23;20031;-81
2022/05/19 04:05:04;;;;;;;19.40;14.63;;;;;;;19.33;72.05;101712.16;6217374;23;20028;-81
2022/05/19 04:07:30;;;;;;;21.08;15.88;;;;;;;19.32;73.34;101705.09;6216449;23;20011;-81
2022/05/19 04:09:56;;;;;;;18.45;14.60;;;;;;;19.35;73.40;101718.22;6217377;23;20029;-81
2022/05/19 04:12:21;;;;;;;21.73;16.65;;;;;;;19.34;73.14;101708.47;6216787;23;20334;-81
2022/05/19 04:14:48;;;;;;;22.63;16.70;;;;;;;19.34;73.20;101711.16;6188656;23;20008;-81
2022/05/19 04:17:14;;;;;;;19.10;16.15;;;;;;;19.34;72.92;101712.00;6215172;23;20051;-81
2022/05/19 04:19:39;;;;;;;19.73;15.98;;;;;;;19.35;72.59;101708.31;6215056;23;20491;-81
2022/05/19 04:22:05;;;;;;;18.42;15.32;;;;;;;19.34;73.34;101722.78;6215552;23;20000;-81
2022/05/19 04:24:30;;;;;;;19.83;15.43;;;;;;;19.34;73.35;101712.00;6215661;23;20044;-81
2022/05/19 04:26:55;;;;;;;20.48;16.40;;;;;;;19.33;72.85;101720.22;6215788;23;20004;-82
2022/05/19 04:29:21;;;;;;;20.38;16.10;;;;;;;19.36;73.03;101710.00;6217076;23;20036;-81
2022/05/19 04:31:46;;;;;;;20.27;16.95;;;;;;;19.36;73.42;101706.47;6217964;23;20000;-81
2022/05/19 04:34:11;;;;;;;22.00;17.70;;;;;;;19.35;74.05;101716.41;6217240;23;20036;-81
2022/05/19 04:36:36;;;;;;;22.48;16.55;;;;;;;19.35;73.62;101702.94;6217018;23;20247;-81
2022/05/19 04:39:03;;;;;;;22.13;17.35;;;;;;;19.32;73.75;101703.22;6216577;23;20009;-81
2022/05/19 04:41:28;;;;;;;21.38;16.33;;;;;;;19.33;74.30;101706.75;6216779;23;20001;-81
2022/05/19 04:43:53;;;;;;;26.30;16.63;;;;;;;19.32;74.82;101714.00;6190928;23;20088;-81
2022/05/19 04:46:19;;;;;;;22.98;16.27;;;;;;;19.34;74.72;101709.31;6217167;23;20243;-81
2022/05/19 04:48:44;;;;;;;20.02;15.90;;;;;;;19.32;73.93;101711.31;6192449;23;20005;-81
2022/05/19 04:51:09;;;;;;;20.90;16.10;;;;;;;19.33;74.93;101688.75;6219032;23;20005;-81
2022/05/19 04:53:35;;;;;;;24.23;16.60;;;;;;;19.34;75.00;101685.06;6192397;23;20248;-81
2022/05/19 04:56:00;;;;;;;23.95;15.57;;;;;;;19.33;75.23;101699.50;6192095;23;20154;-81
2022/05/19 04:58:25;;;;;;;19.38;15.77;;;;;;;19.34;74.87;101703.91;6218982;23;20004;-80
2022/05/19 05:00:52;;;;;;;19.63;15.85;;;;;;;19.33;76.24;101709.47;6219157;23;20016;-81
2022/05/19 05:03:18;;;;;;;21.00;14.88;;;;;;;19.36;75.59;101701.91;6219139;23;20032;-81
2022/05/19 05:05:43;;;;;;;17.40;14.48;;;;;;;19.38;74.79;101696.38;6218628;23;20346;-81
2022/05/19 05:08:09;;;;;;;17.63;13.63;;;;;;;19.37;75.25;101698.22;6218592;23;20004;-80
2022/05/19 05:10:34;;;;;;;19.45;13.20;;;;;;;19.36;75.42;101699.22;6218932;23;20286;-81
2022/05/19 05:13:07;;;;;;;23.55;13.13;;;;;;;19.34;75.16;101689.63;6218424;23;20001;-81
2022/05/19 05:15:33;;;;;;;14.27;11.45;;;;;;;19.35;75.32;101677.81;6218885;23;20336;-81
2022/05/19 05:17:58;;;;;;;15.73;12.57;;;;;;;19.32;75.52;101678.16;6218323;23;20004;-81
2022/05/19 05:20:24;;;;;;;14.70;11.23;;;;;;;19.33;76.09;101667.19;6218220;23;20001;-81
2022/05/19 05:22:49;;;;;;;27.90;14.35;;;;;;;19.32;77.90;101660.13;6193774;23;20747;-81
2022/05/19 05:25:16;;;;;;;20.55;13.40;;;;;;;19.30;79.26;101645.97;6220803;23;20000;-81
2022/05/19 05:27:42;;;;;;;17.20;12.15;;;;;;;19.28;78.84;101628.28;6222084;23;20074;-81
2022/05/19 05:30:08;;;;;;;17.77;11.98;;;;;;;19.23;79.21;101631.44;6223134;23;20012;-81
2022/05/19 05:32:35;;;;;;;20.67;12.95;;;;;;;19.22;79.66;101627.91;6224353;23;20001;-81
2022/05/19 05:35:00;;;;;;;21.70;12.80;;;;;;;19.21;79.79;101620.81;6226890;23;20011;-82
2022/05/19 05:37:26;;;;;;;18.38;12.15;;;;;;;19.18;79.76;101609.50;6223475;23;20028;-82
2022/05/19 05:39:51;;;;;;;17.40;11.98;;;;;;;19.12;81.12;101578.66;6204183;23;20008;-82
2022/05/19 05:42:16;;;;;;;17.65;12.82;;;;;;;19.06;81.28;101586.53;6235384;23;20005;-82
2022/05/19 05:44:42;;;;;;;18.83;12.48;;;;;;;19.02;81.38;101572.53;6232152;23;20028;-82
2022/05/19 05:47:07;;;;;;;20.33;12.90;;;;;;;18.97;81.95;101577.53;6234364;23;20008;-82
2022/05/19 05:49:32;;;;;;;14.60;11.75;;;;;;;18.94;81.52;101588.59;6233279;23;20267;-82
2022/05/19 05:51:58;;;;;;;13.45;10.82;;;;;;;18.91;81.73;101597.00;6223844;23;20004;-82
2022/05/19 05:54:23;;;;;;;13.90;10.50;;;;;;;18.92;80.54;101590.59;6233406;23;20013;-82
2022/05/19 05:56:48;;;;;;;12.35;10.60;;;;;;;18.91;81.52;101581.66;6244921;23;20239;-84
2022/05/19 05:59:13;;;;;;;16.35;10.48;;;;;;;18.93;81.42;101585.06;6243500;22;19993;-84
2022/05/19 06:01:39;;;;;;;15.20;10.82;;;;;;;18.92;81.00;101569.91;6236504;23;20043;-82
2022/05/19 06:04:04;;;;;;;14.48;10.70;;;;;;;18.91;81.43;101567.38;6236728;23;20012;-82
2022/05/19 06:06:30;;;;;;;13.07;10.23;;;;;;;18.88;80.98;101578.44;6233563;23;20041;-82
2022/05/19 06:08:55;;;;;;;14.00;11.15;;;;;;;18.85;81.19;101593.91;6228714;23;20056;-82
2022/05/19 06:11:21;;;;;;;17.48;12.02;;;;;;;18.85;80.60;101596.59;6227851;23;20031;-83
2022/05/19 06:13:49;;;;;;;16.40;12.38;;;;;;;18.87;81.51;101596.47;6226979;23;20005;-81
2022/05/19 06:16:14;;;;;;;16.60;12.88;;;;;;;18.89;81.76;101607.06;6200107;23;20009;-83
2022/05/19 06:18:39;;;;;;;14.52;11.93;;;;;;;18.93;81.38;101605.75;6223329;23;20071;-83
2022/05/19 06:21:05;;;;;;;16.67;12.63;;;;;;;18.96;81.35;101597.38;6225617;23;20000;-83
2022/05/19 06:23:32;;;;;;;15.20;13.18;;;;;;;18.99;82.62;101608.66;6199743;23;20009;-82
2022/05/19 06:25:58;;;;;;;18.90;13.57;;;;;;;19.01;82.21;101603.97;6202472;23;20012;-83
2022/05/19 06:28:23;;;;;;;14.45;12.88;;;;;;;19.06;82.40;101606.22;6228440;23;20013;-82
2022/05/19 06:30:48;;;;;;;15.67;13.53;;;;;;;19.10;82.43;101595.97;6224738;23;20012;-83
2022/05/19 06:33:17;;;;;;;16.98;13.32;;;;;;;19.17;82.69;101588.97;6222982;23;20294;-83
2022/05/19 06:35:42;;;;;;;20.83;14.70;;;;;;;19.21;82.48;101590.34;6222665;23;20009;-83
2022/05/19 06:38:08;;;;;;;20.00;14.63;;;;;;;19.23;81.64;101591.91;6227160;23;20035;-83
2022/05/19 06:40:34;;;;;;;22.98;14.75;;;;;;;19.27;81.84;101592.41;6199703;23;20011;-83
2022/05/19 06:43:00;;;;;;;18.15;14.38;;;;;;;19.27;82.26;101584.34;6225198;23;20031;-83
2022/05/19 06:45:28;;;;;;;17.25;14.75;;;;;;;19.33;81.35;101578.31;6199343;23;20031;-83
2022/05/19 06:47:53;;;;;;;16.40;14.57;;;;;;;19.34;80.89;101568.41;6225399;23;20349;-82
2022/05/19 06:50:20;;;;;;;19.63;14.07;;;;;;;19.35;82.25;101568.25;6222444;23;20009;-82
2022/05/19 06:52:51;;;;;;;16.17;14.48;;;;;;;19.39;81.90;101585.75;6223893;23;20063;-83
2022/05/19 06:55:19;;;;;;;19.17;14.60;;;;;;;19.45;81.24;101583.44;6226477;23;20009;-82
2022/05/19 06:57:44;;;;;;;15.02;13.15;;;;;;;19.47;81.12;101576.91;6201125;23;20013;-82
2022/05/19 07:00:13;;;;;;;22.05;15.02;;;;;;;19.50;80.75;101576.59;6225374;23;20007;-82
2022/05/19 07:02:43;;;;;;;18.30;15.20;;;;;;;19.53;80.50;101572.72;6232981;23;20004;-83
2022/05/19 07:05:09;;;;;;;17.52;14.13;;;;;;;19.58;80.82;101563.19;6236454;23;20009;-82
2022/05/19 07:07:34;;;;;;;17.60;14.32;;;;;;;19.64;80.90;101566.22;6239245;23;20024;-82
2022/05/19 07:09:59;;;;;;;16.33;14.65;;;;;;;19.66;80.67;101564.22;6239535;23;20047;-82
2022/05/19 07:12:25;;;;;;;17.15;14.60;;;;;;;19.68;79.85;101556.81;6237157;23;20358;-82
2022/05/19 07:14:52;;;;;;;17.75;13.48;;;;;;;19.76;80.11;101554.19;6235843;23;20016;-83
2022/05/19 07:17:17;;;;;;;14.15;12.73;;;;;;;19.81;78.82;101561.81;6231910;23;20095;-82
2022/05/19 07:22:29;;;;;;;14.60;13.10;;;;;;;19.94;79.01;101563.03;6234944;23;20019;-82
2022/05/19 07:24:54;;;;;;;18.35;14.82;;;;;;;20.00;79.57;101550.78;6207994;23;20043;-82
2022/05/19 07:27:20;;;;;;;17.92;13.20;;;;;;;20.13;78.75;101550.31;6235519;23;20017;-82
2022/05/19 07:29:47;;;;;;;16.27;13.57;;;;;;;20.23;78.67;101545.59;6239462;23;20544;-82
2022/05/19 07:32:13;;;;;;;15.70;12.93;;;;;;;20.32;77.31;101546.50;6215363;23;20016;-83
2022/05/19 07:34:39;;;;;;;15.63;13.05;;;;;;;20.45;77.49;101554.09;6241846;23;20122;-83
2022/05/19 07:37:06;;;;;;;16.90;13.07;;;;;;;20.59;77.33;101566.97;6244283;23;19999;-83
2022/05/19 07:39:34;;;;;;;17.75;13.98;;;;;;;20.78;76.19;101571.22;6243920;23;20015;-83
2022/05/19 07:41:59;;;;;;;19.77;12.80;;;;;;;20.97;75.73;101574.63;6243591;23;20004;-82
2022/05/19 07:44:27;;;;;;;15.73;13.68;;;;;;;21.21;74.08;101581.88;6242541;23;20017;-80
2022/05/19 07:46:53;;;;;;;15.20;12.50;;;;;;;21.38;73.01;101582.69;6206571;23;20012;-80
2022/05/19 07:49:19;;;;;;;15.77;12.25;;;;;;;21.53;72.75;101585.59;6222869;23;20482;-79
2022/05/19 07:51:45;;;;;;;18.58;13.27;;;;;;;21.60;70.78;101583.91;6223891;23;20005;-79
2022/05/19 07:54:14;;;;;;;14.82;12.25;;;;;;;21.84;72.19;101579.44;6221234;23;20009;-77
2022/05/19 07:56:41;;;;;;;18.38;12.20;;;;;;;22.15;69.65;101579.50;6242128;23;20008;-78
2022/05/19 07:59:19;;;;;;;15.15;13.57;;;;;;;22.46;67.87;101579.50;6239569;23;20015;-81
2022/05/19 08:01:46;;;;;;;14.33;11.80;;;;;;;22.84;65.73;101566.06;6213521;23;20008;-81
2022/05/19 08:04:15;;;;;;;15.23;11.27;;;;;;;23.13;64.66;101572.63;6238100;23;20414;-77
2022/05/19 08:06:47;;;;;;;17.30;12.05;;;;;;;23.49;63.95;101563.81;6203560;23;20036;-78
2022/05/19 08:11:57;;;;;;;16.33;11.48;;;;;;;24.30;63.16;101557.63;6225864;23;20062;-80
2022/05/19 08:17:09;;;;;;;10.43;9.27;;;;;;;25.00;55.97;101571.53;6228765;23;20027;-81
2022/05/19 08:19:35;;;;;;;9.98;9.07;;;;;;;25.26;57.79;101568.16;6210973;23;20013;-82
2022/05/19 08:22:18;;;;;;;15.32;9.68;;;;;;;25.55;54.77;101555.47;6238255;23;20004;-82
2022/05/19 08:24:49;;;;;;;12.75;9.25;;;;;;;25.82;53.89;101562.72;6216549;23;20009;-81
2022/05/19 08:27:16;;;;;;;12.55;9.18;;;;;;;26.02;54.05;101556.56;6242499;23;20001;-81
2022/05/19 08:29:41;;;;;;;10.00;8.45;;;;;;;26.41;52.15;101557.72;6243109;23;20035;-81
2022/05/19 08:32:06;;;;;;;9.50;7.28;;;;;;;26.66;49.75;101554.47;6228534;23;20422;-82
2022/05/19 08:34:32;;;;;;;13.27;7.45;;;;;;;26.72;49.03;101553.63;6221213;23;20001;-82
2022/05/19 08:36:57;;;;;;;10.55;7.57;;;;;;;26.67;48.41;101548.81;6217013;23;20005;-83
2022/05/19 08:39:24;;;;;;;14.90;7.00;;;;;;;26.84;48.18;101549.25;6223353;23;20008;-80
2022/05/19 08:41:58;;;;;;;12.52;7.15;;;;;;;27.01;48.38;101555.09;6225553;23;20240;-82
2022/05/19 08:44:41;;;;;;;8.35;6.78;;;;;;;27.19;50.30;101540.84;6226696;23;20004;-81
2022/05/19 08:47:08;;;;;;;11.80;6.95;;;;;;;27.22;46.65;101545.06;6225900;23;20024;-80
2022/05/19 08:49:49;;;;;;;10.57;6.90;;;;;;;27.19;48.06;101540.00;6179401;23;20047;-81
2022/05/19 08:52:28;;;;;;;8.85;6.70;;;;;;;27.22;47.45;101534.16;6221192;23;20416;-80
2022/05/19 08:54:56;;;;;;;8.25;5.97;;;;;;;27.31;46.03;101543.78;6229735;23;20079;-80
2022/05/19 08:57:24;;;;;;;9.93;6.70;;;;;;;27.44;44.79;101527.41;6224304;23;20018;-80
2022/05/19 09:00:04;;;;;;;10.63;5.45;;;;;;;27.71;46.84;101531.97;6230099;23;20020;-80
2022/05/19 09:02:47;;;;;;;6.85;5.68;;;;;;;27.79;46.42;101518.91;6226980;23;20011;-80
2022/05/19 09:05:25;;;;;;;6.93;5.15;;;;;;;28.01;45.40;101522.22;6220612;23;20043;-80
2022/05/19 09:08:02;;;;;;;9.23;5.80;;;;;;;27.93;42.76;101518.88;6227146;23;20011;-81
2022/05/19 09:10:55;;;;;;;8.07;5.20;;;;;;;28.11;46.19;101523.63;6220407;23;20080;-81
2022/05/19 09:13:30;;;;;;;7.93;4.90;;;;;;;28.07;44.44;101519.69;6129400;23;20040;-81
2022/05/19 09:15:55;;;;;;;5.22;4.43;;;;;;;28.30;44.44;101510.94;6218230;23;20299;-80
2022/05/19 09:18:38;;;;;;;8.88;5.45;;;;;;;28.44;44.13;101512.50;6221141;23;20007;-80
2022/05/19 09:21:12;;;;;;;11.30;5.38;;;;;;;28.73;42.83;101507.50;6225691;23;20012;-80
2022/05/19 09:23:47;;;;;;;7.85;5.28;;;;;;;28.85;42.96;101505.72;6197896;23;20015;-79
2022/05/19 09:26:43;;;;;;;12.00;5.13;;;;;;;28.96;44.06;101509.59;6217103;23;20216;-79
2022/05/19 09:29:13;;;;;;;8.07;6.13;;;;;;;28.89;42.09;101514.31;6191496;23;20092;-80
2022/05/19 09:31:49;;;;;;;7.65;5.38;;;;;;;28.85;42.52;101516.66;6194296;23;20005;-80
2022/05/19 09:34:15;;;;;;;11.02;5.55;;;;;;;29.11;45.10;101514.72;6226791;23;20000;-81
2022/05/19 09:37:09;;;;;;;9.57;4.90;;;;;;;29.19;44.26;101513.66;6225444;23;20080;-80
2022/05/19 09:39:45;;;;;;;9.25;5.60;;;;;;;29.09;42.72;101506.75;6187299;23;20417;-80
2022/05/19 09:42:15;;;;;;;9.85;5.72;;;;;;;28.86;41.66;101506.56;6234290;23;20013;-79
2022/05/19 09:44:48;;;;;;;11.35;5.10;;;;;;;28.81;42.95;101504.47;6239029;23;20008;-80
2022/05/19 09:47:31;;;;;;;9.07;5.15;;;;;;;28.76;43.95;101507.91;6244403;23;19997;-80
2022/05/19 09:50:17;;;;;;;8.18;5.57;;;;;;;28.74;44.04;101510.00;6245341;23;19985;-81
2022/05/19 09:52:44;;;;;;;13.68;5.25;;;;;;;28.46;43.83;101504.91;6245145;23;19989;-80
2022/05/19 09:55:16;;;;;;;9.50;5.55;;;;;;;28.43;43.08;101505.38;6244784;23;20004;-80
2022/05/19 09:57:53;;;;;;;8.23;4.63;;;;;;;28.57;43.81;101497.94;6217004;23;20001;-80
2022/05/19 10:00:26;;;;;;;12.05;5.22;;;;;;;28.58;42.74;101485.97;6245235;23;19994;-80
2022/05/19 10:02:56;;;;;;;10.05;5.15;;;;;;;28.50;42.00;101483.47;6237630;23;20039;-79
2022/05/19 10:05:34;;;;;;;10.43;4.65;;;;;;;28.56;42.98;101483.47;6231077;23;20008;-80
2022/05/19 10:08:07;;;;;;;7.57;4.70;;;;;;;28.60;42.13;101472.91;6243972;23;20016;-82
2022/05/19 10:10:43;;;;;;;7.07;4.80;;;;;;;28.56;43.17;101458.88;6242211;23;20012;-80
2022/05/19 10:13:12;;;;;;;8.13;4.57;;;;;;;28.61;42.34;101449.97;6238795;23;20009;-80
2022/05/19 10:15:53;;;;;;;8.13;3.88;;;;;;;28.73;41.56;101442.75;6243071;23;19991;-81
2022/05/19 10:18:30;;;;;;;8.98;3.78;;;;;;;29.01;40.21;101437.84;6219127;23;19996;-82
2022/05/19 10:21:23;;;;;;;8.82;3.85;;;;;;;29.33;41.97;101433.94;6244812;23;20016;-81
2022/05/19 10:24:16;;;;;;;11.18;3.70;;;;;;;29.58;42.04;101452.16;6243600;23;20056;-82
2022/05/19 10:26:47;;;;;;;5.63;3.47;;;;;;;29.53;37.53;101447.38;6242711;23;20024;-82
2022/05/19 10:32:24;;;;;;;7.90;3.72;;;;;;;29.72;37.96;101439.13;6240624;23;20028;-82
2022/05/19 10:34:49;;;;;;;;;;;;;;;30.02;40.78;101433.69;6238342;23;20027;-83
2022/05/19 10:37:49;;;;;;;6.33;4.10;;;;;;;30.05;37.31;101437.88;6238147;23;19911;-82
2022/05/19 10:40:21;;;;;;;6.45;3.70;;;;;;;30.04;37.72;101447.16;6120833;23;20021;-82
2022/05/19 10:43:15;;;;;;;4.88;3.25;;;;;;;30.08;38.86;101449.19;6208547;23;20008;-82
2022/05/19 10:45:46;;;;;;;9.82;3.50;;;;;;;29.85;37.16;101462.81;6243638;23;20011;-83
2022/05/19 10:48:41;;;;;;;6.55;3.20;;;;;;;29.93;38.45;101445.19;6243998;23;20006;-82
2022/05/19 10:51:28;;;;;;;7.28;3.72;;;;;;;29.91;37.90;101444.59;6217074;23;19992;-82
2022/05/19 10:54:22;;;;;;;6.75;3.28;;;;;;;29.74;38.45;101442.47;6218296;23;20027;-82
2022/05/19 10:56:56;;;;;;;8.07;3.10;;;;;;;29.77;37.22;101438.44;6243744;23;20052;-82
2022/05/19 10:59:35;;;;;;;5.28;2.97;;;;;;;29.88;37.40;101438.53;6243385;23;20007;-82
2022/05/19 11:02:10;;;;;;;;;;;;;;;30.12;39.29;101432.31;6243138;23;20008;-81
2022/05/19 11:04:53;;;;;;;5.95;2.97;;;;;;;30.12;39.10;101438.59;6239139;23;19904;-81
2022/05/19 11:07:39;;;;;;;9.77;3.00;;;;;;;30.15;38.48;101440.06;6230316;23;20080;-81
2022/05/19 11:10:36;;;;;;;5.60;3.17;;;;;;;29.89;37.33;101436.63;6218732;23;20031;-82
2022/05/19 11:13:18;;;;;;;5.65;2.88;;;;;;;29.72;38.25;101433.66;6224920;23;20008;-82
2022/05/19 11:15:56;;;;;;;5.55;3.53;;;;;;;29.60;37.78;101428.13;6228530;23;20008;-81
2022/05/19 11:18:33;;;;;;;5.57;3.20;;;;;;;29.33;38.78;101428.47;6228949;23;20100;-80
2022/05/19 11:21:16;;;;;;;7.07;3.67;;;;;;;29.46;39.78;101441.16;6226968;23;20028;-80
2022/05/19 11:23:51;;;;;;;7.82;3.45;;;;;;;29.43;39.07;101444.34;6226460;23;20039;-81
2022/05/19 11:26:38;;;;;;;8.13;2.90;;;;;;;29.41;39.95;101459.31;6196525;23;20011;-81
2022/05/19 11:29:06;;;;;;;7.20;3.40;;;;;;;29.08;40.05;101474.19;6227190;23;20453;-81
2022/05/19 11:31:35;;;;;;;5.70;2.83;;;;;;;29.06;39.70;101479.03;6226705;23;20080;-81
2022/05/19 11:34:07;;;;;;;9.48;3.58;;;;;;;28.91;39.88;101484.84;6200604;23;20008;-81
2022/05/19 11:36:49;;;;;;;9.88;4.55;;;;;;;28.70;41.29;101489.66;6221925;23;20052;-80
2022/05/19 11:39:23;;;;;;;8.75;3.30;;;;;;;28.47;41.82;101596.78;6225253;23;20004;-81